WetterOnline ( https://www.wetteronline.de )

Wetter aktuell Bayerisch Eisenstein

Aktuelles Wetter: Großer Arber (1446m)

6-stündlich | Neueste Meldungen
Ortszeit Temperatur Wetter
Mi, 19.01. 13:00 -1.0° C wolkenlos
Mi, 19.01. 7:00 2.3° C leicht bewölkt
Mi, 19.01. 1:00 -1.6° C wolkenlos
Di, 18.01. 19:00 -5.6° C Nebel
Di, 18.01. 13:00 -5.5° C Nebel
Di, 18.01. 7:00 -6.6° C Nebel
Di, 18.01. 1:00 -4.9° C Nebel
Mo, 17.01. 19:00 -4.3° C Nebel
Ortszeit Temperatur Wetter
Mi, 19.01. 18:30 -5.4° C Nebel
Mi, 19.01. 18:20 -5.4° C Nebel
Mi, 19.01. 18:10 -5.4° C Nebel
Mi, 19.01. 18:00 -5.8° C Nebel
Mi, 19.01. 17:50 -5.8° C Nebel
Mi, 19.01. 17:40 -6.2° C Nebel
Mi, 19.01. 17:30 -5.8° C Nebel
Mi, 19.01. 17:00 -3.7° C wolkenlos
Mi, 19.01. 16:30 -3.3° C wolkenlos
Mi, 19.01. 16:00 -2.9° C wolkenlos
Mi, 19.01. 15:30 -2.0° C wolkenlos
Ortszeit Relative Feuchte Sichtweite
Mi, 19.01. 13:00 54% 45 km
Mi, 19.01. 7:00 51% >70 km
Mi, 19.01. 1:00 56% >70 km
Di, 18.01. 19:00 95% <100 m
Di, 18.01. 13:00 91% 100 m
Di, 18.01. 7:00 98% 1.4 km
Di, 18.01. 1:00 96% <100 m
Mo, 17.01. 19:00 96% <100 m
Ortszeit Relative Feuchte Sichtweite
Mi, 19.01. 18:30 93% <100 m
Mi, 19.01. 18:20 93% -
Mi, 19.01. 18:10 94% -
Mi, 19.01. 18:00 93% <100 m
Mi, 19.01. 17:50 93% -
Mi, 19.01. 17:40 94% -
Mi, 19.01. 17:30 95% 0.2 km
Mi, 19.01. 17:00 83% 15 km
Mi, 19.01. 16:30 80% 26 km
Mi, 19.01. 16:00 74% 10 km
Mi, 19.01. 15:30 61% 45 km
Ortszeit Niederschlagsmenge Niederschlagsart
Mi, 19.01. 13:00 0.0 l/m2 in 6 Std. -
Mi, 19.01. 7:00 0.0 l/m2 in 12 Std. -
Mi, 19.01. 1:00 0.0 l/m2 in 6 Std. -
Di, 18.01. 19:00 0.1 l/m2 in 12 Std. -
Di, 18.01. 13:00 0.1 l/m2 in 6 Std. Schnee
Di, 18.01. 7:00 0.5 l/m2 in 12 Std. -
Di, 18.01. 1:00 0.5 l/m2 in 6 Std. -
Mo, 17.01. 19:00 0.1 l/m2 in 12 Std. -
Ortszeit Niederschlagsmenge Niederschlagsart
Mi, 19.01. 18:30 0.1 l/m2 in 1 Std. -
Mi, 19.01. 18:20 keine Meldung -
Mi, 19.01. 18:10 keine Meldung -
Mi, 19.01. 18:00 0.0 l/m2 in 1 Std. -
Mi, 19.01. 17:50 keine Meldung -
Mi, 19.01. 17:40 keine Meldung -
Mi, 19.01. 17:30 0.0 l/m2 in 1 Std. -
Mi, 19.01. 17:00 0.0 l/m2 in 1 Std. -
Mi, 19.01. 16:30 0.0 l/m2 in 1 Std. -
Mi, 19.01. 16:00 0.0 l/m2 in 1 Std. -
Mi, 19.01. 15:30 0.0 l/m2 in 1 Std. -
Ortszeit Stärke Spitze Richtung
km/h Bft. km/h Grad Sektor
Mi, 19.01. 13:00 40 6 54 180° S
Mi, 19.01. 7:00 9 2 19 200° S
Mi, 19.01. 1:00 7 2 25 130° SO
Di, 18.01. 19:00 17 3 35 300° NW
Di, 18.01. 13:00 25 4 47 330° NW
Di, 18.01. 7:00 25 4 50 300° NW
Di, 18.01. 1:00 33 5 85 310° NW
Mo, 17.01. 19:00 61 7 101 270° W
Ortszeit Stärke Spitze Richtung
km/h Bft. km/h Grad Sektor
Mi, 19.01. 18:30 63 8 89 260° W
Mi, 19.01. 18:20 63 8 - 260° W
Mi, 19.01. 18:10 67 8 - 260° W
Mi, 19.01. 18:00 65 8 86 270° W
Mi, 19.01. 17:50 65 8 - 270° W
Mi, 19.01. 17:40 61 7 - 260° W
Mi, 19.01. 17:30 58 7 83 260° W
Mi, 19.01. 17:00 61 7 83 260° W
Mi, 19.01. 16:30 52 7 72 270° W
Mi, 19.01. 16:00 52 7 74 260° W
Mi, 19.01. 15:30 46 6 67 250° W
Ortszeit Untergrenze Bedeckung Gattung
total tief tief mittel hoch
Mi, 19.01. 13:00 - 0/8 0/8 - - -
Mi, 19.01. 7:00 9000 m 5/8 0/8 - - -
Mi, 19.01. 1:00 - 0/8 0/8 - - -
Di, 18.01. 19:00 <30 m 5/8 0/8 - - -
Di, 18.01. 13:00 <30 m 8/8 0/8 - - -
Di, 18.01. 7:00 <30 m 8/8 0/8 - - -
Di, 18.01. 1:00 <30 m 8/8 0/8 - - -
Mo, 17.01. 19:00 <30 m 8/8 0/8 - - -
Ortszeit Bedeckungsgrad in Achtel und Wolkenuntergrenze
Mi, 19.01. 18:30 8(<30m)
Mi, 19.01. 18:20 8(<30m)
Mi, 19.01. 18:10 8(<30m)
Mi, 19.01. 18:00 7(<30m)
Mi, 19.01. 17:50 7(<30m)
Mi, 19.01. 17:40 7(<30m)
Mi, 19.01. 17:30 3(<30m)
Mi, 19.01. 17:00 keine Wolken
Mi, 19.01. 16:30 keine Wolken
Mi, 19.01. 16:00 keine Wolken
Mi, 19.01. 15:30 keine Wolken
Ortszeit Stationsdruck (hPa) Tendenz (hPa in 3 Std.)
Mi, 19.01. 13:00 857 - 3,0
Mi, 19.01. 7:00 862 - 1,3
Mi, 19.01. 1:00 866 - 1,1
Di, 18.01. 19:00 867 + 0,3
Di, 18.01. 13:00 867 + 0,5
Di, 18.01. 7:00 865 + 0,8
Di, 18.01. 1:00 863 + 0,5
Mo, 17.01. 19:00 859 + 2,4
Ortszeit Stationsdruck (hPa) Tendenz (hPa in 3 Std.)
Mi, 19.01. 18:30 853 - 2,4
Mi, 19.01. 18:20 853 keine Meldung
Mi, 19.01. 18:10 853 keine Meldung
Mi, 19.01. 18:00 853 - 2,3
Mi, 19.01. 17:50 853 keine Meldung
Mi, 19.01. 17:40 853 keine Meldung
Mi, 19.01. 17:30 854 - 1,4
Mi, 19.01. 17:00 854 - 1,6
Mi, 19.01. 16:30 854 - 2,2
Mi, 19.01. 16:00 855 - 2,6
Mi, 19.01. 15:30 855 - 3,0
Ortszeit Schneehöhe (cm)
Mi, 19.01. 13:00 46
Mi, 19.01. 7:00 46
Mi, 19.01. 1:00 46
Di, 18.01. 19:00 46
Di, 18.01. 13:00 46
Di, 18.01. 7:00 46
Di, 18.01. 1:00 47
Mo, 17.01. 19:00 46
Ortszeit Schneehöhe (cm)
Mi, 19.01. 18:30 46
Mi, 19.01. 18:20 46
Mi, 19.01. 18:10 46
Mi, 19.01. 18:00 46
Mi, 19.01. 17:50 46
Mi, 19.01. 17:40 46
Mi, 19.01. 17:30 46
Mi, 19.01. 17:00 46
Mi, 19.01. 16:30 46
Mi, 19.01. 16:00 46
Mi, 19.01. 15:30 46
Link zu dieser Seite / Seite empfehlen

Das Wetter in ...